createdAt,value
2019-03-30T00:00:10.440Z,5.43
2019-03-30T00:03:23.146Z,5.29
2019-03-30T00:06:30.960Z,4.88
2019-03-30T00:09:38.812Z,5.07
2019-03-30T00:12:46.774Z,5.10
2019-03-30T00:15:54.667Z,5.11
2019-03-30T00:19:02.481Z,5.18
2019-03-30T00:22:10.400Z,5.14
2019-03-30T00:25:20.061Z,5.12
2019-03-30T00:28:28.625Z,4.99
2019-03-30T00:31:36.501Z,5.07
2019-03-30T00:34:44.325Z,4.93
2019-03-30T00:37:52.092Z,5.14
2019-03-30T00:41:00.335Z,4.94
2019-03-30T00:44:08.103Z,4.92
2019-03-30T00:47:15.947Z,4.89
2019-03-30T00:50:23.697Z,4.78
2019-03-30T00:53:31.688Z,4.79
2019-03-30T00:56:40.640Z,4.72
2019-03-30T00:59:48.511Z,4.72
2019-03-30T01:02:56.257Z,4.60
2019-03-30T01:06:04.110Z,4.54
2019-03-30T01:09:12.010Z,4.39
2019-03-30T01:12:19.816Z,4.48
2019-03-30T01:15:28.857Z,4.57
2019-03-30T01:18:36.671Z,4.34
2019-03-30T01:21:44.451Z,4.36
2019-03-30T01:24:52.251Z,4.60
2019-03-30T01:28:02.892Z,4.35
2019-03-30T01:31:11.675Z,4.29
2019-03-30T01:34:21.772Z,4.54
2019-03-30T01:37:29.627Z,4.42
2019-03-30T01:40:37.407Z,4.58
2019-03-30T01:43:45.225Z,4.50
2019-03-30T01:46:53.291Z,4.17
2019-03-30T01:50:01.194Z,4.07
2019-03-30T01:53:08.950Z,4.03
2019-03-30T01:56:16.732Z,4.24
2019-03-30T01:59:24.503Z,4.21
2019-03-30T02:02:32.231Z,3.94
2019-03-30T02:05:39.998Z,4.08
2019-03-30T02:08:47.927Z,3.82
2019-03-30T02:11:57.268Z,4.19
2019-03-30T02:15:05.775Z,4.03
2019-03-30T02:18:15.108Z,3.94
2019-03-30T02:21:22.958Z,4.04
2019-03-30T02:24:30.821Z,3.78
2019-03-30T02:27:38.786Z,3.92
2019-03-30T02:30:46.614Z,3.79
2019-03-30T02:33:54.559Z,3.96
2019-03-30T02:37:02.347Z,3.87
2019-03-30T02:40:10.258Z,3.82
2019-03-30T02:43:18.183Z,3.83
2019-03-30T02:46:26.135Z,3.74
2019-03-30T02:49:34.210Z,3.73
2019-03-30T02:52:41.964Z,3.84
2019-03-30T02:55:49.703Z,4.03
2019-03-30T02:58:58.121Z,3.86
2019-03-30T03:02:06.051Z,3.76
2019-03-30T03:05:14.021Z,3.75
2019-03-30T03:08:21.848Z,3.66
2019-03-30T03:11:29.685Z,3.87
2019-03-30T03:14:37.742Z,3.85
2019-03-30T03:17:45.579Z,3.60
2019-03-30T03:21:06.552Z,3.90
2019-03-30T03:24:05.291Z,3.88
2019-03-30T03:27:13.103Z,3.79
2019-03-30T03:30:23.886Z,3.85
2019-03-30T03:33:31.667Z,3.73
2019-03-30T03:36:39.586Z,3.85
2019-03-30T03:39:47.362Z,3.78
2019-03-30T03:42:57.772Z,3.69
2019-03-30T03:46:05.704Z,3.75
2019-03-30T03:49:13.642Z,3.67
2019-03-30T03:52:21.883Z,3.59
2019-03-30T03:55:30.645Z,3.69
2019-03-30T03:58:39.891Z,3.84
2019-03-30T04:01:49.615Z,3.68
2019-03-30T04:05:01.630Z,3.55
2019-03-30T04:08:12.907Z,3.38
2019-03-30T04:11:22.600Z,3.56
2019-03-30T04:14:30.927Z,3.62
2019-03-30T04:17:39.108Z,3.46
2019-03-30T04:20:46.988Z,3.51
2019-03-30T04:23:55.142Z,3.67
2019-03-30T04:27:03.226Z,3.49
2019-03-30T04:30:10.939Z,3.36
2019-03-30T04:33:19.824Z,3.45
2019-03-30T04:36:28.217Z,3.57
2019-03-30T04:39:35.908Z,3.51
2019-03-30T04:42:47.533Z,3.40
2019-03-30T04:45:55.384Z,3.31
2019-03-30T04:49:03.093Z,3.42
2019-03-30T04:52:10.931Z,3.51
2019-03-30T04:55:19.727Z,3.35
2019-03-30T04:58:29.575Z,3.44
2019-03-30T05:01:38.669Z,3.38
2019-03-30T05:04:46.552Z,3.31
2019-03-30T05:07:55.967Z,3.45
2019-03-30T05:11:03.799Z,3.28
2019-03-30T05:14:11.664Z,3.21
2019-03-30T05:17:22.279Z,3.21
2019-03-30T05:20:30.028Z,3.25
2019-03-30T05:23:39.542Z,3.26
2019-03-30T05:26:47.710Z,3.39
2019-03-30T05:29:55.554Z,3.37
2019-03-30T05:33:06.090Z,3.42
2019-03-30T05:36:12.917Z,3.46
2019-03-30T05:39:20.657Z,3.47
2019-03-30T05:42:28.507Z,3.61
2019-03-30T05:45:36.398Z,4.17
2019-03-30T05:48:45.137Z,4.11
2019-03-30T05:51:52.905Z,3.90
2019-03-30T05:55:00.608Z,3.88
2019-03-30T05:58:08.731Z,3.89
2019-03-30T06:01:16.546Z,4.03
2019-03-30T06:04:24.393Z,4.11
2019-03-30T06:07:49.648Z,4.16
2019-03-30T06:10:58.052Z,4.19
2019-03-30T06:14:05.889Z,4.28
2019-03-30T06:17:13.687Z,4.40
2019-03-30T06:20:24.402Z,4.58
2019-03-30T06:23:33.358Z,4.72
2019-03-30T06:26:42.897Z,4.85
2019-03-30T06:30:40.378Z,5.00
2019-03-30T06:33:48.322Z,5.11
2019-03-30T06:36:58.630Z,5.19
2019-03-30T06:40:06.528Z,5.33
2019-03-30T06:43:14.372Z,5.45
2019-03-30T06:46:22.382Z,5.47
2019-03-30T06:49:30.171Z,5.53
2019-03-30T06:52:51.025Z,5.61
2019-03-30T06:55:50.688Z,5.70
2019-03-30T06:58:59.963Z,5.83
2019-03-30T07:02:09.696Z,5.96
2019-03-30T07:05:17.726Z,6.18
2019-03-30T07:08:27.307Z,6.37
2019-03-30T07:11:42.593Z,6.46
2019-03-30T07:14:53.809Z,6.60
2019-03-30T07:18:04.611Z,6.74
2019-03-30T07:21:12.445Z,6.85
2019-03-30T07:24:20.315Z,7.00
2019-03-30T07:27:28.976Z,7.31
2019-03-30T07:30:39.607Z,7.46
2019-03-30T07:33:50.784Z,7.70
2019-03-30T07:36:59.818Z,7.85
2019-03-30T07:40:08.268Z,8.03
2019-03-30T07:43:16.148Z,8.29
2019-03-30T07:46:24.084Z,8.37
2019-03-30T07:49:32.102Z,8.60
2019-03-30T07:52:42.833Z,8.81
2019-03-30T07:55:50.642Z,8.76
2019-03-30T07:58:58.412Z,9.03
2019-03-30T08:02:06.645Z,9.00
2019-03-30T08:05:14.956Z,9.06
2019-03-30T08:08:22.826Z,9.47
2019-03-30T08:11:30.794Z,9.60
2019-03-30T08:14:40.510Z,9.73
2019-03-30T08:17:48.328Z,9.90
2019-03-30T08:20:56.267Z,9.92
2019-03-30T08:24:05.046Z,10.28
2019-03-30T08:27:14.007Z,10.44
2019-03-30T08:30:21.697Z,10.65
2019-03-30T08:33:30.694Z,10.64
2019-03-30T08:36:39.896Z,10.81
2019-03-30T08:39:47.813Z,11.02
2019-03-30T08:42:55.703Z,11.35
2019-03-30T08:46:03.616Z,11.63
2019-03-30T08:49:11.555Z,11.64
2019-03-30T08:52:19.430Z,11.75
2019-03-30T08:55:27.332Z,11.85
2019-03-30T08:58:35.129Z,11.83
2019-03-30T09:01:46.173Z,12.11
2019-03-30T09:04:54.267Z,12.28
2019-03-30T09:08:02.478Z,12.40
2019-03-30T09:11:10.372Z,12.61
2019-03-30T09:14:18.251Z,12.79
2019-03-30T09:17:26.295Z,12.76
2019-03-30T09:20:34.159Z,12.83
2019-03-30T09:23:42.146Z,13.26
2019-03-30T09:26:50.033Z,13.01
2019-03-30T09:29:58.948Z,13.03
2019-03-30T09:33:07.025Z,13.22
2019-03-30T09:36:14.971Z,13.12
2019-03-30T09:39:22.831Z,13.19
2019-03-30T09:42:30.799Z,13.35
2019-03-30T09:45:42.119Z,13.32
2019-03-30T09:48:50.001Z,13.76
2019-03-30T09:51:57.894Z,13.85
2019-03-30T09:55:07.959Z,13.38
2019-03-30T09:58:15.963Z,13.69
2019-03-30T10:01:24.028Z,13.43
2019-03-30T10:04:31.994Z,13.94
2019-03-30T10:07:44.215Z,13.99
2019-03-30T10:10:52.225Z,13.97
2019-03-30T10:14:01.334Z,13.67
2019-03-30T10:17:09.217Z,13.94
2019-03-30T10:20:17.262Z,13.52
2019-03-30T10:23:25.213Z,14.25
2019-03-30T10:26:33.141Z,13.99
2019-03-30T10:29:42.072Z,13.87
2019-03-30T10:32:49.988Z,14.06
2019-03-30T10:35:57.867Z,14.89
2019-03-30T10:39:07.293Z,15.15
2019-03-30T10:42:15.247Z,15.24
2019-03-30T10:45:23.535Z,15.03
2019-03-30T10:48:31.508Z,15.02
2019-03-30T10:51:44.488Z,15.16
2019-03-30T10:54:53.303Z,15.73
2019-03-30T10:58:03.113Z,15.45
2019-03-30T11:01:11.390Z,15.11
2019-03-30T11:04:20.667Z,15.18
2019-03-30T11:07:29.044Z,15.02
2019-03-30T11:10:40.257Z,15.42
2019-03-30T11:13:48.132Z,15.26
2019-03-30T11:16:56.226Z,15.06
2019-03-30T11:20:04.544Z,15.93
2019-03-30T11:23:12.735Z,15.47
2019-03-30T11:26:20.619Z,15.99
2019-03-30T11:29:28.554Z,15.42
2019-03-30T11:32:38.813Z,15.49
2019-03-30T11:35:46.750Z,15.89
2019-03-30T11:38:56.451Z,16.39
2019-03-30T11:42:05.340Z,16.58
2019-03-30T11:45:13.301Z,16.43
2019-03-30T11:48:24.189Z,16.35
2019-03-30T11:51:32.152Z,16.25
2019-03-30T11:54:40.492Z,16.69
2019-03-30T11:57:48.321Z,16.67
2019-03-30T12:00:56.403Z,16.79
2019-03-30T12:04:04.338Z,16.74
2019-03-30T12:07:12.277Z,17.19
2019-03-30T12:10:20.241Z,17.12
2019-03-30T12:13:28.504Z,16.79
2019-03-30T12:16:36.820Z,17.18
2019-03-30T12:19:44.699Z,16.79
2019-03-30T12:22:52.595Z,17.08
2019-03-30T12:26:00.628Z,17.23
2019-03-30T12:29:08.540Z,17.37
2019-03-30T12:32:18.008Z,17.46
2019-03-30T12:35:26.273Z,17.26
2019-03-30T12:38:35.811Z,17.74
2019-03-30T12:41:46.453Z,16.96
2019-03-30T12:44:54.325Z,17.12
2019-03-30T12:48:02.256Z,16.75
2019-03-30T12:51:10.273Z,16.62
2019-03-30T12:54:19.885Z,17.39
2019-03-30T12:57:28.140Z,17.75
2019-03-30T13:00:41.991Z,17.26
2019-03-30T13:03:52.209Z,17.36
2019-03-30T13:07:01.060Z,17.39
2019-03-30T13:10:10.067Z,17.58
2019-03-30T13:13:20.737Z,17.50
2019-03-30T13:16:28.950Z,17.08
2019-03-30T13:19:36.930Z,17.50
2019-03-30T13:22:45.087Z,17.10
2019-03-30T13:26:02.794Z,17.62
2019-03-30T13:29:03.623Z,17.60
2019-03-30T13:32:11.618Z,17.81
2019-03-30T13:35:19.523Z,17.88
2019-03-30T13:38:27.333Z,17.87
2019-03-30T13:41:38.413Z,17.90
2019-03-30T13:44:46.278Z,18.44
2019-03-30T13:47:54.169Z,18.15
2019-03-30T13:51:02.043Z,17.93
2019-03-30T13:54:09.978Z,17.87
2019-03-30T13:57:17.802Z,18.09
2019-03-30T14:00:25.707Z,18.29
2019-03-30T14:03:34.665Z,18.35
2019-03-30T14:06:42.502Z,17.64
2019-03-30T14:09:50.387Z,18.32
2019-03-30T14:12:59.866Z,18.28
2019-03-30T14:16:07.784Z,17.95
2019-03-30T14:19:17.079Z,18.34
2019-03-30T14:22:25.193Z,18.89
2019-03-30T14:25:36.193Z,18.47
2019-03-30T14:28:45.767Z,17.97
2019-03-30T14:31:53.770Z,18.28
2019-03-30T14:35:01.642Z,18.83
2019-03-30T14:38:09.851Z,18.24
2019-03-30T14:41:17.768Z,18.91
2019-03-30T14:44:25.846Z,18.90
2019-03-30T14:47:35.157Z,18.14
2019-03-30T14:50:43.271Z,18.04
2019-03-30T14:53:51.140Z,17.82
2019-03-30T14:56:59.057Z,18.06
2019-03-30T15:00:07.759Z,18.22
2019-03-30T15:03:15.773Z,18.06
2019-03-30T15:06:23.658Z,17.83
2019-03-30T15:09:32.494Z,17.59
2019-03-30T15:12:41.514Z,17.76
2019-03-30T15:15:49.379Z,17.93
2019-03-30T15:18:57.236Z,17.90
2019-03-30T15:22:05.394Z,17.68
2019-03-30T15:25:15.748Z,17.42
2019-03-30T15:28:23.728Z,17.30
2019-03-30T15:31:31.655Z,17.40
2019-03-30T15:34:40.695Z,17.39
2019-03-30T15:37:48.583Z,17.67
2019-03-30T15:40:56.527Z,17.51
2019-03-30T15:44:04.431Z,17.57
2019-03-30T15:47:12.428Z,17.66
2019-03-30T15:50:21.760Z,17.62
2019-03-30T15:53:29.680Z,17.36
2019-03-30T15:56:37.793Z,17.28
2019-03-30T15:59:45.692Z,17.16
2019-03-30T16:02:54.649Z,17.04
2019-03-30T16:06:02.520Z,17.07
2019-03-30T16:09:10.388Z,16.99
2019-03-30T16:12:18.102Z,16.93
2019-03-30T16:15:26.161Z,17.08
2019-03-30T16:18:34.290Z,16.81
2019-03-30T16:21:42.568Z,16.70
2019-03-30T16:24:50.711Z,16.53
2019-03-30T16:27:58.690Z,16.71
2019-03-30T16:31:06.687Z,16.70
2019-03-30T16:34:14.715Z,16.62
2019-03-30T16:37:23.720Z,16.65
2019-03-30T16:40:33.188Z,16.50
2019-03-30T16:43:44.050Z,16.38
2019-03-30T16:46:52.172Z,16.35
2019-03-30T16:50:00.467Z,16.30
2019-03-30T16:53:08.167Z,16.27
2019-03-30T16:56:16.099Z,16.03
2019-03-30T16:59:23.993Z,15.89
2019-03-30T17:02:31.832Z,15.83
2019-03-30T17:05:39.938Z,15.61
2019-03-30T17:08:47.827Z,15.33
2019-03-30T17:11:55.716Z,15.31
2019-03-30T17:15:03.567Z,14.98
2019-03-30T17:18:12.614Z,14.71
2019-03-30T17:21:20.592Z,14.38
2019-03-30T17:24:30.445Z,14.28
2019-03-30T17:27:39.277Z,14.11
2019-03-30T17:30:47.256Z,14.42
2019-03-30T17:33:55.276Z,14.11
2019-03-30T17:37:03.179Z,13.96
2019-03-30T17:40:11.821Z,13.78
2019-03-30T17:43:19.761Z,13.33
2019-03-30T17:46:28.237Z,12.64
2019-03-30T17:49:36.230Z,12.93
2019-03-30T17:52:44.089Z,12.52
2019-03-30T17:55:51.963Z,12.52
2019-03-30T17:59:00.015Z,12.48
2019-03-30T18:02:08.163Z,12.31
2019-03-30T18:05:18.409Z,11.48
2019-03-30T18:08:26.173Z,11.98
2019-03-30T18:11:34.309Z,12.00
2019-03-30T18:14:42.193Z,11.78
2019-03-30T18:17:50.121Z,11.16
2019-03-30T18:20:58.019Z,11.42
2019-03-30T18:24:05.999Z,11.31
2019-03-30T18:27:13.682Z,11.24
2019-03-30T18:30:36.354Z,10.09
2019-03-30T18:33:44.785Z,9.79
2019-03-30T18:36:55.503Z,10.24
2019-03-30T18:40:03.703Z,10.56
2019-03-30T18:43:11.995Z,9.90
2019-03-30T18:46:19.934Z,9.43
2019-03-30T18:49:27.891Z,9.74
2019-03-30T18:52:36.094Z,10.05
2019-03-30T18:55:44.002Z,9.79
2019-03-30T18:58:51.881Z,9.90
2019-03-30T19:02:00.000Z,8.72
2019-03-30T19:05:11.183Z,9.46
2019-03-30T19:08:18.977Z,9.47
2019-03-30T19:11:26.645Z,9.44
2019-03-30T19:14:34.406Z,8.70
2019-03-30T19:17:42.183Z,9.43
2019-03-30T19:20:50.067Z,8.79
2019-03-30T19:23:57.975Z,9.35
2019-03-30T19:27:05.726Z,8.94
2019-03-30T19:30:14.126Z,8.38
2019-03-30T19:33:22.265Z,9.01
2019-03-30T19:36:30.046Z,8.61
2019-03-30T19:39:37.901Z,8.33
2019-03-30T19:42:48.291Z,8.67
2019-03-30T19:45:56.160Z,8.70
2019-03-30T19:49:06.930Z,8.95
2019-03-30T19:52:14.713Z,8.92
2019-03-30T19:55:22.499Z,9.21
2019-03-30T19:58:30.224Z,9.30
2019-03-30T20:01:38.097Z,9.18
2019-03-30T20:04:45.832Z,8.93
2019-03-30T20:07:53.708Z,8.98
2019-03-30T20:11:03.750Z,8.84
2019-03-30T20:14:12.209Z,9.31
2019-03-30T20:17:20.265Z,8.65
2019-03-30T20:20:28.091Z,8.70
2019-03-30T20:23:35.985Z,8.18
2019-03-30T20:26:43.929Z,7.40
2019-03-30T20:29:51.877Z,7.93
2019-03-30T20:32:59.875Z,8.12
2019-03-30T20:36:09.041Z,7.69
2019-03-30T20:39:16.986Z,8.48
2019-03-30T20:42:25.114Z,8.83
2019-03-30T20:45:32.894Z,8.64
2019-03-30T20:48:42.314Z,8.53
2019-03-30T20:51:50.171Z,8.68
2019-03-30T20:54:57.913Z,8.80
2019-03-30T20:58:08.518Z,8.85
2019-03-30T21:01:16.234Z,8.31
2019-03-30T21:04:23.891Z,8.45
2019-03-30T21:07:31.781Z,8.43
2019-03-30T21:10:39.851Z,8.55
2019-03-30T21:13:47.772Z,8.81
2019-03-30T21:16:55.581Z,8.91
2019-03-30T21:20:04.233Z,9.02
2019-03-30T21:23:15.112Z,8.93
2019-03-30T21:26:23.001Z,8.86
2019-03-30T21:29:30.765Z,8.79
2019-03-30T21:32:38.715Z,8.75
2019-03-30T21:35:46.452Z,8.78
2019-03-30T21:38:55.527Z,8.70
2019-03-30T21:42:08.527Z,8.49
2019-03-30T21:45:16.370Z,8.57
2019-03-30T21:48:24.258Z,8.60
2019-03-30T21:51:32.161Z,8.60
2019-03-30T21:54:39.976Z,8.44
2019-03-30T21:57:47.790Z,8.62
2019-03-30T22:00:55.551Z,8.57
2019-03-30T22:04:05.651Z,8.47
2019-03-30T22:07:13.969Z,8.58
2019-03-30T22:10:30.077Z,8.39
2019-03-30T22:13:41.847Z,8.45
2019-03-30T22:16:49.656Z,8.49
2019-03-30T22:19:57.574Z,8.28
2019-03-30T22:23:08.216Z,8.29
2019-03-30T22:26:16.111Z,8.39
2019-03-30T22:29:24.036Z,8.41
2019-03-30T22:32:31.861Z,8.31
2019-03-30T22:35:40.385Z,8.29
2019-03-30T22:38:48.172Z,8.30
2019-03-30T22:41:56.204Z,8.28
2019-03-30T22:45:04.177Z,8.18
2019-03-30T22:48:12.549Z,8.14
2019-03-30T22:51:21.601Z,8.18
2019-03-30T22:54:29.358Z,8.11
2019-03-30T22:57:37.126Z,8.16
2019-03-30T23:01:10.084Z,8.09
2019-03-30T23:04:19.543Z,8.01
2019-03-30T23:07:27.304Z,7.98
2019-03-30T23:10:35.149Z,8.00
2019-03-30T23:13:42.893Z,8.05
2019-03-30T23:16:50.693Z,7.96
2019-03-30T23:20:03.008Z,7.89
2019-03-30T23:23:12.472Z,7.94
2019-03-30T23:26:22.241Z,7.87
2019-03-30T23:29:29.984Z,7.91
2019-03-30T23:32:38.157Z,7.87
2019-03-30T23:35:45.907Z,7.89
2019-03-30T23:38:53.636Z,7.78
2019-03-30T23:42:02.859Z,7.78
2019-03-30T23:45:10.766Z,7.82
2019-03-30T23:48:18.643Z,7.60
2019-03-30T23:51:27.731Z,7.55
2019-03-30T23:54:35.566Z,7.63
2019-03-30T23:57:43.324Z,7.76
